Time;durP1;ratioP1;P1;durP2;ratioP2;P2;SDS_P1;SDS_P2;PMS_P1;PMS_P2;Temp;Humidity;BMP_temperature;BMP_pressure;BME280_temperature;BME280_humidity;BME280_pressure;Samples;Min_cycle;Max_cycle;Signal;HPM_P1;HPM_P2
2022/03/23 00:01:03;;;;;;;;;;;;;;;17.48;44.64;102106.12;4434730;32;19993;-71
2022/03/23 00:03:29;;;;;;;;;;;;;;;17.53;44.52;102108.44;4434693;32;19989;-71
2022/03/23 00:05:54;;;;;;;;;;;;;;;17.64;44.53;102110.91;4419779;32;20012;-71
2022/03/23 00:08:21;;;;;;;;;;;;;;;17.65;44.44;102110.47;4432923;32;20315;-71
2022/03/23 00:10:48;;;;;;;;;;;;;;;17.69;44.54;102108.31;4434501;32;19996;-71
2022/03/23 00:13:13;;;;;;;;;;;;;;;17.79;44.34;102118.56;4433240;32;20057;-71
2022/03/23 00:15:39;;;;;;;;;;;;;;;17.79;44.22;102115.72;4432902;32;19941;-71
2022/03/23 00:18:05;;;;;;;;;;;;;;;17.50;44.23;102115.03;4433270;32;19980;-71
2022/03/23 00:20:31;;;;;;;;;;;;;;;17.72;43.80;102110.28;4435822;32;20390;-71
2022/03/23 00:22:57;;;;;;;;;;;;;;;17.68;43.92;102115.25;4434339;32;19956;-71
2022/03/23 00:25:23;;;;;;;;;;;;;;;17.61;44.02;102115.47;4432817;32;20387;-71
2022/03/23 00:27:49;;;;;;;;;;;;;;;17.58;44.25;102109.91;4433017;32;19965;-71
2022/03/23 00:30:14;;;;;;;;;;;;;;;17.51;44.12;102108.09;4433561;32;20395;-71
2022/03/23 00:32:40;;;;;;;;;;;;;;;17.44;44.30;102110.34;4429021;32;19964;-71
2022/03/23 00:35:06;;;;;;;;;;;;;;;17.40;44.50;102113.25;4435106;32;19957;-71
2022/03/23 00:37:32;;;;;;;;;;;;;;;17.38;44.38;102117.81;4434535;32;19988;-71
2022/03/23 00:39:57;;;;;;;;;;;;;;;17.21;44.60;102119.94;4433193;32;19953;-71
2022/03/23 00:42:23;;;;;;;;;;;;;;;17.15;44.71;102124.59;4434247;32;19957;-71
2022/03/23 00:44:48;;;;;;;;;;;;;;;17.25;44.61;102119.84;4432132;32;20031;-71
2022/03/23 00:47:14;;;;;;;;;;;;;;;17.12;44.95;102116.94;4435395;32;20240;-71
2022/03/23 00:49:40;;;;;;;;;;;;;;;17.16;44.65;102122.53;4435848;32;20376;-71
2022/03/23 00:52:06;;;;;;;;;;;;;;;17.10;44.80;102122.31;4431928;32;19953;-71
2022/03/23 00:54:34;;;;;;;;;;;;;;;17.15;44.57;102121.75;4433126;32;19953;-71
2022/03/23 00:57:01;;;;;;;;;;;;;;;17.06;44.84;102120.81;4434640;32;20490;-71
2022/03/23 00:59:27;;;;;;;;;;;;;;;16.92;45.09;102127.69;4432285;32;19945;-71
2022/03/23 01:01:53;;;;;;;;;;;;;;;16.99;44.73;102124.66;4434800;32;19972;-71
2022/03/23 01:04:19;;;;;;;;;;;;;;;16.65;45.21;102130.06;4434032;32;20349;-71
2022/03/23 01:06:44;;;;;;;;;;;;;;;16.85;44.63;102142.13;4432494;32;19949;-71
2022/03/23 01:09:10;;;;;;;;;;;;;;;16.82;44.79;102133.69;4432519;32;20031;-71
2022/03/23 01:11:37;;;;;;;;;;;;;;;16.77;44.84;102135.03;4433065;32;19953;-71
2022/03/23 01:14:04;;;;;;;;;;;;;;;16.79;44.71;102131.72;4434156;32;20992;-71
2022/03/23 01:16:30;;;;;;;;;;;;;;;16.88;44.78;102132.66;4432343;32;19949;-71
2022/03/23 01:18:56;;;;;;;;;;;;;;;16.87;44.76;102133.94;4432677;32;19949;-71
2022/03/23 01:21:22;;;;;;;;;;;;;;;16.88;44.80;102138.34;4431995;32;19992;-71
2022/03/23 01:23:48;;;;;;;;;;;;;;;16.95;44.53;102135.34;4435876;32;19980;-71
2022/03/23 01:26:14;;;;;;;;;;;;;;;16.87;44.83;102136.78;4435369;32;20430;-71
2022/03/23 01:28:39;;;;;;;;;;;;;;;16.79;45.10;102131.72;4430944;32;20338;-71
2022/03/23 01:31:05;;;;;;;;;;;;;;;16.80;44.85;102139.81;4430142;32;19952;-71
2022/03/23 01:33:31;;;;;;;;;;;;;;;16.71;44.99;102127.47;4430539;32;20350;-71
2022/03/23 01:35:57;;;;;;;;;;;;;;;16.67;44.87;102130.44;4433980;32;20379;-71
2022/03/23 01:38:23;;;;;;;;;;;;;;;16.58;45.00;102135.16;4436097;32;20015;-71
2022/03/23 01:40:48;;;;;;;;;;;;;;;16.55;44.86;102133.19;4433149;32;20048;-71
2022/03/23 01:43:14;;;;;;;;;;;;;;;16.56;44.81;102124.22;4433617;32;19976;-71
2022/03/23 01:45:40;;;;;;;;;;;;;;;16.46;45.10;102131.00;4433093;32;19986;-71
2022/03/23 01:48:05;;;;;;;;;;;;;;;16.28;45.17;102121.28;4430899;32;20915;-71
2022/03/23 01:50:31;;;;;;;;;;;;;;;16.30;45.22;102125.31;4430723;32;19961;-71
2022/03/23 01:52:57;;;;;;;;;;;;;;;16.31;44.90;102123.25;4433248;32;19975;-71
2022/03/23 01:55:23;;;;;;;;;;;;;;;16.18;45.27;102120.34;4435094;32;19959;-71
2022/03/23 01:57:51;;;;;;;;;;;;;;;16.16;45.38;102114.28;4430059;32;20412;-71
2022/03/23 02:00:17;;;;;;;;;;;;;;;16.11;45.53;102114.03;4432654;32;20034;-71
2022/03/23 02:02:44;;;;;;;;;;;;;;;16.07;45.61;102111.28;4432455;32;20232;-71
2022/03/23 02:05:10;;;;;;;;;;;;;;;15.99;45.82;102113.47;4429518;32;19958;-71
2022/03/23 02:07:36;;;;;;;;;;;;;;;15.78;45.94;102111.16;4431922;32;20025;-71
2022/03/23 02:10:03;;;;;;;;;;;;;;;15.86;45.92;102106.09;4430970;32;19998;-71
2022/03/23 02:12:30;;;;;;;;;;;;;;;15.66;45.97;102111.87;4434376;32;20395;-71
2022/03/23 02:14:56;;;;;;;;;;;;;;;15.77;45.68;102105.91;4435816;32;20405;-71
2022/03/23 02:17:21;;;;;;;;;;;;;;;15.80;45.77;102107.87;4430649;32;20626;-71
2022/03/23 02:19:47;;;;;;;;;;;;;;;15.67;46.03;102107.78;4431169;32;19976;-71
2022/03/23 02:22:13;;;;;;;;;;;;;;;15.58;46.12;102104.75;4430697;32;20017;-71
2022/03/23 02:24:39;;;;;;;;;;;;;;;15.58;46.17;102103.94;4432790;32;19984;-71
2022/03/23 02:27:04;;;;;;;;;;;;;;;15.53;46.17;102096.75;4433429;32;19992;-71
2022/03/23 02:29:31;;;;;;;;;;;;;;;15.48;46.24;102102.16;4435103;32;20401;-71
2022/03/23 02:31:58;;;;;;;;;;;;;;;15.51;46.28;102104.09;4433113;32;19953;-71
2022/03/23 02:34:25;;;;;;;;;;;;;;;15.42;46.24;102104.72;4431554;32;20358;-71
2022/03/23 02:36:51;;;;;;;;;;;;;;;15.30;46.37;102102.50;4434293;32;19992;-71
2022/03/23 02:39:17;;;;;;;;;;;;;;;15.33;46.40;102112.16;4435681;32;20394;-71
2022/03/23 02:41:43;;;;;;;;;;;;;;;15.34;46.31;102105.28;4434910;32;19977;-71
2022/03/23 02:44:11;;;;;;;;;;;;;;;15.22;46.49;102114.47;4437989;32;19992;-71
2022/03/23 02:46:37;;;;;;;;;;;;;;;15.20;46.19;102103.56;4435872;32;20017;-71
2022/03/23 02:49:03;;;;;;;;;;;;;;;15.16;46.45;102104.87;4435419;32;20335;-71
2022/03/23 02:51:29;;;;;;;;;;;;;;;15.10;46.54;102103.78;4434334;32;19985;-71
2022/03/23 03:02:37;;;;;;;;;;;;;;;15.06;46.52;102105.84;4436150;32;20725;-71
2022/03/23 03:05:03;;;;;;;;;;;;;;;15.03;46.68;102107.53;4433938;32;19992;-71
2022/03/23 03:08:44;;;;;;;;;;;;;;;15.00;46.66;102107.63;4439321;32;20383;-71
2022/03/23 03:10:15;;;;;;;;;;;;;;;14.94;46.67;102103.72;4432988;32;20056;-71
2022/03/23 03:12:42;;;;;;;;;;;;;;;14.97;46.59;102102.84;4432735;32;20348;-71
2022/03/23 03:15:10;;;;;;;;;;;;;;;14.91;46.76;102102.53;4439336;32;19956;-71
2022/03/23 03:17:36;;;;;;;;;;;;;;;14.83;46.59;102109.59;4431978;32;20271;-71
2022/03/23 03:20:04;;;;;;;;;;;;;;;14.77;46.78;102107.69;4432244;32;19972;-71
2022/03/23 03:22:34;;;;;;;;;;;;;;;14.85;46.59;102109.94;4432190;32;19990;-71
2022/03/23 03:25:03;;;;;;;;;;;;;;;14.79;46.59;102105.22;4432613;32;20034;-71
2022/03/23 03:27:35;;;;;;;;;;;;;;;14.69;46.31;102107.00;4434560;32;19953;-71
2022/03/23 03:30:04;;;;;;;;;;;;;;;14.72;46.48;102102.50;4432954;32;19968;-71
2022/03/23 03:32:30;;;;;;;;;;;;;;;14.73;46.62;102095.63;4434364;32;20035;-71
2022/03/23 03:35:00;;;;;;;;;;;;;;;14.70;46.70;102100.09;4433153;32;19992;-71
2022/03/23 03:37:26;;;;;;;;;;;;;;;14.63;47.08;102094.59;4436171;32;20007;-71
2022/03/23 03:39:51;;;;;;;;;;;;;;;14.64;46.94;102093.38;4432979;32;20338;-71
2022/03/23 03:42:18;;;;;;;;;;;;;;;14.52;47.11;102104.53;4432764;32;20011;-71
2022/03/23 03:44:44;;;;;;;;;;;;;;;14.31;46.99;102096.41;4432342;32;20006;-71
2022/03/23 03:47:10;;;;;;;;;;;;;;;14.35;46.62;102106.44;4433959;32;19996;-71
2022/03/23 03:49:37;;;;;;;;;;;;;;;14.40;46.60;102111.63;4432884;32;19957;-71
2022/03/23 03:52:03;;;;;;;;;;;;;;;14.41;46.72;102103.91;4435168;32;19991;-71
2022/03/23 03:54:28;;;;;;;;;;;;;;;14.44;46.85;102103.84;4433896;32;20008;-71
2022/03/23 03:56:54;;;;;;;;;;;;;;;14.39;46.99;102112.06;4435388;32;20357;-71
2022/03/23 03:59:20;;;;;;;;;;;;;;;14.38;47.20;102113.25;4432966;32;20398;-71
2022/03/23 04:01:46;;;;;;;;;;;;;;;14.35;46.99;102114.94;4435199;32;20031;-71
2022/03/23 04:04:11;;;;;;;;;;;;;;;14.34;46.55;102109.69;4434075;32;20372;-71
2022/03/23 04:06:37;;;;;;;;;;;;;;;14.29;46.82;102116.66;4433593;32;19967;-71
2022/03/23 04:09:03;;;;;;;;;;;;;;;14.32;46.71;102117.81;4432666;32;20003;-71
2022/03/23 04:11:30;;;;;;;;;;;;;;;14.41;46.56;102115.22;4434606;32;19984;-71
2022/03/23 04:13:55;;;;;;;;;;;;;;;14.34;46.74;102121.84;4435690;32;19983;-71
2022/03/23 04:16:22;;;;;;;;;;;;;;;14.25;46.94;102115.13;4431639;32;19968;-71
2022/03/23 04:18:47;;;;;;;;;;;;;;;14.30;46.64;102117.47;4434033;32;19946;-71
2022/03/23 04:21:13;;;;;;;;;;;;;;;14.26;46.85;102119.56;4434644;32;19992;-71
2022/03/23 04:23:38;;;;;;;;;;;;;;;14.25;46.87;102130.09;4431479;32;20070;-71
2022/03/23 04:26:04;;;;;;;;;;;;;;;14.14;46.47;102134.31;4434993;32;20232;-71
2022/03/23 04:28:30;;;;;;;;;;;;;;;14.15;46.62;102131.03;4435336;32;20318;-71
2022/03/23 04:30:56;;;;;;;;;;;;;;;14.13;46.74;102135.50;4429311;32;19997;-71
2022/03/23 04:33:22;;;;;;;;;;;;;;;14.21;46.55;102140.66;4438032;32;20306;-71
2022/03/23 04:35:47;;;;;;;;;;;;;;;14.19;46.57;102136.62;4435105;32;20275;-71
2022/03/23 04:38:13;;;;;;;;;;;;;;;14.23;46.40;102138.19;4430557;32;20411;-71
2022/03/23 04:40:39;;;;;;;;;;;;;;;14.22;46.61;102128.09;4435156;32;20827;-71
2022/03/23 04:43:05;;;;;;;;;;;;;;;14.13;46.85;102142.00;4433840;32;19970;-71
2022/03/23 04:45:30;;;;;;;;;;;;;;;14.11;47.00;102140.81;4432142;32;20548;-71
2022/03/23 04:47:56;;;;;;;;;;;;;;;14.12;46.81;102133.91;4436517;32;19996;-71
2022/03/23 04:50:22;;;;;;;;;;;;;;;14.12;46.49;102131.09;4431825;32;20012;-71
2022/03/23 04:52:48;;;;;;;;;;;;;;;13.94;46.75;102137.81;4433644;32;20499;-71
2022/03/23 04:55:15;;;;;;;;;;;;;;;14.01;46.74;102134.91;4434128;32;20447;-71
2022/03/23 04:57:41;;;;;;;;;;;;;;;13.85;46.75;102140.41;4435086;32;20008;-71
2022/03/23 05:00:10;;;;;;;;;;;;;;;13.69;46.59;102143.06;4431384;32;20331;-71
2022/03/23 05:02:38;;;;;;;;;;;;;;;13.82;46.55;102140.47;4433737;32;20007;-70
2022/03/23 05:05:04;;;;;;;;;;;;;;;13.80;46.39;102142.91;4432533;32;19957;-71
2022/03/23 05:07:30;;;;;;;;;;;;;;;13.77;46.43;102141.75;4430820;32;20313;-71
2022/03/23 05:09:55;;;;;;;;;;;;;;;13.85;45.96;102137.59;4432197;32;20427;-71
2022/03/23 05:12:21;;;;;;;;;;;;;;;13.91;46.17;102149.22;4438952;32;19969;-71
2022/03/23 05:14:46;;;;;;;;;;;;;;;13.86;46.00;102136.34;4433656;32;20014;-70
2022/03/23 05:17:12;;;;;;;;;;;;;;;13.71;46.18;102136.97;4430565;32;19976;-71
2022/03/23 05:19:37;;;;;;;;;;;;;;;13.79;46.11;102142.13;4434770;32;19945;-71
2022/03/23 05:22:03;;;;;;;;;;;;;;;13.79;46.33;102153.44;4431513;32;20036;-71
2022/03/23 05:24:29;;;;;;;;;;;;;;;13.72;46.88;102145.03;4433555;32;20008;-71
2022/03/23 05:26:54;;;;;;;;;;;;;;;13.81;46.20;102153.03;4433853;32;20206;-71
2022/03/23 05:29:20;;;;;;;;;;;;;;;13.76;46.26;102150.66;4433011;32;19968;-71
2022/03/23 05:31:45;;;;;;;;;;;;;;;13.67;46.26;102145.53;4429642;32;19993;-71
2022/03/23 05:34:11;;;;;;;;;;;;;;;13.79;46.38;102147.78;4432316;32;20424;-71
2022/03/23 05:36:37;;;;;;;;;;;;;;;13.79;46.41;102150.62;4434173;32;19953;-71
2022/03/23 05:39:02;;;;;;;;;;;;;;;13.76;46.72;102148.63;4430693;32;20022;-71
2022/03/23 05:41:28;;;;;;;;;;;;;;;13.77;46.62;102152.25;4430680;32;20003;-71
2022/03/23 05:43:54;;;;;;;;;;;;;;;13.67;46.69;102156.84;4431294;32;20308;-71
2022/03/23 05:46:19;;;;;;;;;;;;;;;13.65;46.73;102153.62;4435150;32;19964;-71
2022/03/23 05:48:45;;;;;;;;;;;;;;;13.59;46.78;102161.00;4431106;32;19953;-71
2022/03/23 05:51:10;;;;;;;;;;;;;;;13.71;46.52;102171.75;4433522;32;19968;-71
2022/03/23 05:53:36;;;;;;;;;;;;;;;13.70;46.54;102170.16;4431360;32;20053;-71
2022/03/23 05:56:04;;;;;;;;;;;;;;;13.75;46.72;102172.47;4435751;32;19997;-71
2022/03/23 05:58:30;;;;;;;;;;;;;;;13.87;46.34;102168.28;4434533;32;20033;-71
2022/03/23 06:00:56;;;;;;;;;;;;;;;14.04;46.20;102179.34;4431550;32;19953;-71
2022/03/23 06:03:21;;;;;;;;;;;;;;;14.05;46.00;102178.09;4432471;32;20537;-71
2022/03/23 06:05:47;;;;;;;;;;;;;;;14.14;45.36;102173.94;4433064;32;19965;-71
2022/03/23 06:08:13;;;;;;;;;;;;;;;14.29;45.26;102187.47;4434664;32;20031;-70
2022/03/23 06:10:39;;;;;;;;;;;;;;;14.15;45.50;102178.38;4431501;32;20003;-70
2022/03/23 06:13:04;;;;;;;;;;;;;;;14.23;45.16;102177.84;4435879;32;19957;-71
2022/03/23 06:15:29;;;;;;;;;;;;;;;14.29;45.47;102181.00;4442073;32;20111;-71
2022/03/23 06:17:55;;;;;;;;;;;;;;;14.18;45.51;102175.50;4436200;32;20428;-71
2022/03/23 06:20:21;;;;;;;;;;;;;;;14.20;45.37;102172.22;4433880;32;19969;-71
2022/03/23 06:22:46;;;;;;;;;;;;;;;14.13;45.21;102175.16;4434698;32;20356;-71
2022/03/23 06:25:12;;;;;;;;;;;;;;;14.31;44.98;102179.34;4435806;32;19992;-71
2022/03/23 06:27:38;;;;;;;;;;;;;;;14.28;44.52;102173.72;4437180;32;19953;-71
2022/03/23 06:30:05;;;;;;;;;;;;;;;14.32;44.63;102163.13;4433237;32;19973;-71
2022/03/23 06:32:33;;;;;;;;;;;;;;;14.46;44.19;102174.22;4432566;32;19981;-71
2022/03/23 06:35:00;;;;;;;;;;;;;;;14.72;44.06;102170.50;4438668;32;20032;-71
2022/03/23 06:37:26;;;;;;;;;;;;;;;14.97;43.44;102170.88;4434313;32;19954;-71
2022/03/23 06:39:52;;;;;;;;;;;;;;;14.75;43.95;102178.97;4431168;32;19961;-71
2022/03/23 06:42:18;;;;;;;;;;;;;;;14.95;43.21;102179.81;4433579;32;20456;-71
2022/03/23 06:44:43;;;;;;;;;;;;;;;15.02;43.84;102178.84;4437507;32;20004;-71
2022/03/23 06:47:09;;;;;;;;;;;;;;;15.28;43.16;102178.72;4437209;32;19972;-71
2022/03/23 06:49:34;;;;;;;;;;;;;;;15.41;43.09;102182.53;4435763;32;19981;-71
2022/03/23 06:52:00;;;;;;;;;;;;;;;15.50;42.59;102181.97;4433404;32;20012;-71
2022/03/23 06:54:26;;;;;;;;;;;;;;;15.66;42.88;102190.53;4435936;32;19995;-71
2022/03/23 06:56:52;;;;;;;;;;;;;;;15.88;42.92;102195.28;4435807;32;19949;-71
2022/03/23 06:59:18;;;;;;;;;;;;;;;15.85;42.85;102189.69;4435441;32;19988;-72
2022/03/23 07:01:44;;;;;;;;;;;;;;;15.93;42.85;102202.50;4432998;32;20687;-71
2022/03/23 07:04:10;;;;;;;;;;;;;;;16.08;42.50;102197.28;4434025;32;21114;-71
2022/03/23 07:06:36;;;;;;;;;;;;;;;16.20;42.23;102188.84;4434177;32;19949;-71
2022/03/23 07:09:32;;;;;;;;;;;;;;;16.24;42.08;102189.56;4434812;32;19961;-71
2022/03/23 07:11:46;;;;;;;;;;;;;;;16.20;42.36;102191.69;4433039;32;20611;-71
2022/03/23 07:14:12;;;;;;;;;;;;;;;16.32;41.72;102193.81;4437373;32;20052;-71
2022/03/23 07:16:38;;;;;;;;;;;;;;;16.33;41.89;102188.94;4431531;32;19989;-71
2022/03/23 07:19:04;;;;;;;;;;;;;;;16.44;41.77;102189.53;4434948;32;19985;-71
2022/03/23 07:21:32;;;;;;;;;;;;;;;16.39;41.93;102188.00;4433352;32;19990;-71
2022/03/23 07:23:57;;;;;;;;;;;;;;;16.48;42.09;102188.19;4436586;32;20032;-71
2022/03/23 07:26:24;;;;;;;;;;;;;;;16.68;41.63;102188.88;4432066;32;20346;-71
2022/03/23 07:28:49;;;;;;;;;;;;;;;16.64;41.40;102196.72;4433424;32;20004;-71
2022/03/23 07:31:15;;;;;;;;;;;;;;;16.86;41.38;102203.44;4431352;32;20038;-71
2022/03/23 07:33:40;;;;;;;;;;;;;;;16.83;41.70;102209.19;4432801;32;20037;-71
2022/03/23 07:36:06;;;;;;;;;;;;;;;17.00;41.53;102210.78;4431907;32;20091;-71
2022/03/23 07:38:31;;;;;;;;;;;;;;;17.08;40.82;102218.66;4432726;32;19996;-71
2022/03/23 07:40:57;;;;;;;;;;;;;;;17.27;41.00;102212.03;4431401;32;20013;-71
2022/03/23 07:43:22;;;;;;;;;;;;;;;17.45;40.49;102220.91;4438426;32;19957;-71
2022/03/23 07:45:48;;;;;;;;;;;;;;;17.50;40.38;102220.34;4431022;32;20012;-71
2022/03/23 07:48:16;;;;;;;;;;;;;;;17.59;40.27;102219.69;4423942;32;19954;-72
2022/03/23 07:50:41;;;;;;;;;;;;;;;17.74;39.60;102224.50;4424373;32;20004;-72
2022/03/23 07:53:07;;;;;;;;;;;;;;;17.86;39.80;102240.81;4433437;32;20379;-71
2022/03/23 07:55:32;;;;;;;;;;;;;;;18.04;39.61;102233.78;4430001;32;20291;-72
2022/03/23 07:57:58;;;;;;;;;;;;;;;18.21;39.82;102238.91;4428504;32;20363;-72
2022/03/23 08:00:24;;;;;;;;;;;;;;;18.17;39.85;102232.53;4431286;32;20004;-72
2022/03/23 08:02:51;;;;;;;;;;;;;;;18.27;39.55;102239.16;4427475;32;19978;-72
2022/03/23 08:05:18;;;;;;;;;;;;;;;18.17;39.43;102240.28;4428810;32;20435;-72
2022/03/23 08:07:45;;;;;;;;;;;;;;;18.39;39.52;102239.19;4426267;32;20012;-72
2022/03/23 08:10:11;;;;;;;;;;;;;;;18.30;39.58;102241.09;4441461;32;20086;-72
2022/03/23 08:12:37;;;;;;;;;;;;;;;18.41;39.85;102250.13;4426469;32;19992;-72
2022/03/23 08:15:03;;;;;;;;;;;;;;;18.65;38.74;102246.44;4428495;32;19995;-73
2022/03/23 08:17:29;;;;;;;;;;;;;;;18.93;39.04;102236.91;4420322;32;19993;-72
2022/03/23 08:22:42;;;;;;;;;;;;;;;19.26;38.68;102251.66;4426039;32;19997;-72
2022/03/23 08:25:08;;;;;;;;;;;;;;;19.54;37.46;102250.66;4427167;32;20011;-72
2022/03/23 08:27:33;;;;;;;;;;;;;;;19.83;37.60;102251.97;4425189;32;20005;-72
2022/03/23 08:29:59;;;;;;;;;;;;;;;19.94;37.22;102257.28;4424931;32;20023;-73
2022/03/23 08:32:26;;;;;;;;;;;;;;;20.21;36.83;102256.66;4428174;32;19996;-74
2022/03/23 08:34:52;;;;;;;;;;;;;;;20.47;35.95;102256.00;4432291;32;20000;-74
2022/03/23 08:37:18;;;;;;;;;;;;;;;20.67;36.02;102261.28;4429294;32;20052;-73
2022/03/23 08:39:43;;;;;;;;;;;;;;;20.72;35.79;102257.81;4427263;32;20036;-74
2022/03/23 08:42:09;;;;;;;;;;;;;;;20.93;35.34;102257.69;4430410;32;20012;-74
2022/03/23 08:44:35;;;;;;;;;;;;;;;21.02;35.24;102260.59;4427618;32;20045;-75
2022/03/23 08:47:00;;;;;;;;;;;;;;;21.00;35.37;102260.31;4432845;32;20412;-73
2022/03/23 08:49:26;;;;;;;;;;;;;;;20.93;35.41;102256.91;4430329;32;20004;-73
2022/03/23 08:51:52;;;;;;;;;;;;;;;20.51;35.20;102250.13;4427023;32;20003;-73
2022/03/23 08:54:18;;;;;;;;;;;;;;;20.69;35.84;102256.72;4425565;32;20045;-75
2022/03/23 08:56:43;;;;;;;;;;;;;;;20.64;36.48;102262.22;4428171;32;19969;-72
2022/03/23 08:59:09;;;;;;;;;;;;;;;20.86;35.87;102260.87;4425271;32;20369;-73
2022/03/23 09:01:35;;;;;;;;;;;;;;;20.99;35.66;102260.78;4425105;32;20399;-75
2022/03/23 09:04:04;;;;;;;;;;;;;;;20.96;35.66;102265.38;4426108;32;20011;-74
2022/03/23 09:06:29;;;;;;;;;;;;;;;21.19;35.41;102264.78;4426914;32;19984;-73
2022/03/23 09:08:55;;;;;;;;;;;;;;;21.48;34.93;102272.91;4426398;32;19990;-74
2022/03/23 09:11:22;;;;;;;;;;;;;;;22.08;33.98;102275.88;4427435;32;20031;-75
2022/03/23 09:13:48;;;;;;;;;;;;;;;22.48;33.29;102273.50;4425322;32;19975;-75
2022/03/23 09:16:13;;;;;;;;;;;;;;;22.78;32.79;102283.91;4425552;32;19945;-73
2022/03/23 09:18:39;;;;;;;;;;;;;;;22.68;32.79;102268.84;4424008;32;19997;-74
2022/03/23 09:21:05;;;;;;;;;;;;;;;22.90;32.49;102265.66;4425039;32;20712;-72
2022/03/23 09:23:31;;;;;;;;;;;;;;;22.87;32.52;102266.63;4425366;32;20000;-71
2022/03/23 09:25:56;;;;;;;;;;;;;;;22.96;32.56;102276.00;4426400;32;20386;-72
2022/03/23 09:28:22;;;;;;;;;;;;;;;23.15;32.30;102273.78;4420390;32;19993;-73
2022/03/23 09:30:48;;;;;;;;;;;;;;;23.13;33.01;102274.28;4420944;32;20011;-73
2022/03/23 09:33:15;;;;;;;;;;;;;;;23.68;32.06;102274.66;4420512;32;19979;-74
2022/03/23 09:35:41;;;;;;;;;;;;;;;23.73;32.21;102273.19;4419827;32;20008;-73
2022/03/23 09:38:07;;;;;;;;;;;;;;;24.06;31.49;102280.41;4426007;32;20302;-72
2022/03/23 09:40:32;;;;;;;;;;;;;;;24.58;30.51;102287.28;4422024;32;20442;-74
2022/03/23 09:43:00;;;;;;;;;;;;;;;24.35;30.50;102276.69;4421703;32;20662;-72
2022/03/23 09:45:56;;;;;;;;;;;;;;;25.01;29.86;102286.41;4423875;32;19991;-73
2022/03/23 09:48:11;;;;;;;;;;;;;;;25.15;29.90;102285.53;4429419;32;21001;-72
2022/03/23 09:50:38;;;;;;;;;;;;;;;25.23;29.67;102293.25;4428667;32;19961;-72
2022/03/23 09:53:04;;;;;;;;;;;;;;;24.96;30.00;102285.03;4430728;32;19961;-71
2022/03/23 09:55:30;;;;;;;;;;;;;;;25.31;29.91;102285.78;4427044;32;20030;-73
2022/03/23 09:57:58;;;;;;;;;;;;;;;25.53;29.40;102284.47;4426990;32;19975;-73
2022/03/23 10:00:25;;;;;;;;;;;;;;;25.75;29.02;102284.72;4427785;32;19957;-71
2022/03/23 10:03:12;;;;;;;;;;;;;;;26.33;28.34;102282.19;4427771;32;20386;-72
2022/03/23 10:06:02;;;;;;;;;;;;;;;26.02;29.14;102284.25;4428555;32;19968;-72
2022/03/23 10:08:48;;;;;;;;;;;;;;;26.65;27.69;102288.75;4429971;32;20309;-72
2022/03/23 10:11:34;;;;;;;;;;;;;;;26.51;27.94;102286.81;4423875;32;20036;-73
2022/03/23 10:14:19;;;;;;;;;;;;;;;26.32;28.03;102288.50;4428636;32;20008;-73
2022/03/23 10:17:04;;;;;;;;;;;;;;;26.21;27.75;102280.53;4427210;32;19957;-73
2022/03/23 10:19:31;;;;;;;;;;;;;;;25.99;27.95;102282.41;4425974;32;19973;-73
2022/03/23 10:22:06;;;;;;;;;;;;;;;25.79;28.37;102283.22;4425753;32;19967;-73
2022/03/23 10:24:33;;;;;;;;;;;;;;;26.01;28.34;102274.81;4428231;32;20375;-73
2022/03/23 10:27:04;;;;;;;;;;;;;;;26.59;27.68;102277.16;4426692;32;19962;-73
2022/03/23 10:29:31;;;;;;;;;;;;;;;27.23;26.84;102280.19;4429176;32;20019;-73
2022/03/23 10:31:59;;;;;;;;;;;;;;;27.13;26.74;102278.03;4423974;32;20559;-73
2022/03/23 10:34:25;;;;;;;;;;;;;;;27.01;26.86;102285.06;4429470;32;19976;-72
2022/03/23 10:36:51;;;;;;;;;;;;;;;27.02;26.42;102287.44;4425984;32;19976;-72
2022/03/23 10:39:19;;;;;;;;;;;;;;;26.76;26.76;102283.87;4429311;32;20025;-72
2022/03/23 10:41:55;;;;;;;;;;;;;;;27.81;25.36;102290.16;4427597;32;19988;-72
2022/03/23 10:44:21;;;;;;;;;;;;;;;28.20;24.66;102281.56;4429249;32;20012;-72
2022/03/23 10:46:46;;;;;;;;;;;;;;;28.73;24.06;102284.19;4426535;32;20279;-72
2022/03/23 10:49:14;;;;;;;;;;;;;;;29.08;23.01;102277.84;4427493;32;20362;-72
2022/03/23 10:51:41;;;;;;;;;;;;;;;28.95;23.32;102279.16;4429061;32;20023;-72
2022/03/23 10:54:16;;;;;;;;;;;;;;;29.42;22.67;102280.06;4426600;32;20832;-72
2022/03/23 10:56:42;;;;;;;;;;;;;;;30.20;22.05;102280.44;4425109;32;20000;-73
2022/03/23 10:59:25;;;;;;;;;;;;;;;30.47;21.56;102282.34;4426358;32;20342;-72
2022/03/23 11:04:44;;;;;;;;;;;;;;;31.09;21.26;102294.94;3939794;32;15797520;-73
2022/03/23 11:07:30;;;;;;;;;;;;;;;31.09;21.26;102294.94;4423481;32;19980;-73
2022/03/23 11:15:51;;;;;;;;;;;;;;;30.19;22.15;102288.34;4418292;32;20330;-73
2022/03/23 11:18:17;;;;;;;;;;;;;;;30.30;22.12;102288.28;4425879;32;20396;-73
2022/03/23 11:23:23;;;;;;;;;;;;;;;31.67;20.85;102285.22;3944582;32;15724481;-75
2022/03/23 11:25:50;;;;;;;;;;;;;;;31.67;20.85;102285.22;4424425;32;19999;-72
2022/03/23 11:28:16;;;;;;;;;;;;;;;31.65;20.74;102279.16;4425204;32;20499;-73
2022/03/23 11:30:43;;;;;;;;;;;;;;;31.61;20.50;102277.91;4417792;32;20381;-74
2022/03/23 11:33:10;;;;;;;;;;;;;;;31.18;20.90;102269.19;4415415;32;19997;-74
2022/03/23 11:35:37;;;;;;;;;;;;;;;31.17;21.21;102275.53;4416221;32;20011;-74
2022/03/23 11:38:04;;;;;;;;;;;;;;;29.59;22.53;102271.28;4422685;32;20039;-73
2022/03/23 11:40:30;;;;;;;;;;;;;;;30.45;21.55;102271.25;4419937;32;19965;-73
2022/03/23 11:42:56;;;;;;;;;;;;;;;31.14;20.88;102265.81;4425456;32;19996;-73
2022/03/23 11:45:22;;;;;;;;;;;;;;;30.91;21.14;102260.75;4424856;32;19993;-73
2022/03/23 11:53:36;;;;;;;;;;;;;;;31.43;20.81;102247.47;3952666;31;15718704;-73
2022/03/23 11:56:02;;;;;;;;;;;;;;;32.19;20.02;102253.47;4421441;32;20391;-73
2022/03/23 11:58:37;;;;;;;;;;;;;;;32.20;19.85;102246.31;4424207;32;20080;-73
2022/03/23 12:01:08;;;;;;;;;;;;;;;31.95;20.03;102246.97;4424370;32;20103;-73
2022/03/23 12:03:53;;;;;;;;;;;;;;;32.21;19.78;102242.03;4427959;32;20284;-73
2022/03/23 12:08:57;;;;;;;;;;;;;;;33.59;18.79;102244.44;3946559;32;15725571;-74
2022/03/23 12:11:42;;;;;;;;;;;;;;;33.59;18.79;102244.44;4422503;32;19990;-73
2022/03/23 12:14:18;;;;;;;;;;;;;;;33.26;18.82;102237.16;4422310;32;19999;-74
2022/03/23 12:19:30;;;;;;;;;;;;;;;34.66;17.65;102244.97;3946611;32;15723607;-74
2022/03/23 12:22:14;;;;;;;;;;;;;;;34.66;17.65;102244.97;4420054;32;20437;-74
2022/03/23 12:27:25;;;;;;;;;;;;;;;33.43;18.18;102228.06;3946624;32;15722470;-74
2022/03/23 12:29:51;;;;;;;;;;;;;;;34.20;17.39;102234.97;4418529;32;20013;-74
2022/03/23 12:32:17;;;;;;;;;;;;;;;34.34;17.02;102228.50;4417681;32;19961;-72
2022/03/23 12:34:43;;;;;;;;;;;;;;;33.87;17.26;102216.16;4419472;32;19965;-73
2022/03/23 12:37:10;;;;;;;;;;;;;;;34.30;17.41;102219.28;4415864;32;20383;-73
2022/03/23 12:39:40;;;;;;;;;;;;;;;35.24;16.57;102221.75;4413636;32;20024;-73
2022/03/23 12:45:02;;;;;;;;;;;;;;;35.20;16.00;102213.34;3947792;32;15725432;-72
2022/03/23 12:47:29;;;;;;;;;;;;;;;35.20;16.00;102213.34;4435670;32;19975;-74
2022/03/23 12:58:04;;;;;;;;;;;;;;;35.89;15.69;102201.34;4415548;32;19996;-72
2022/03/23 13:00:32;;;;;;;;;;;;;;;35.91;15.55;102206.63;4428107;32;20374;-72
2022/03/23 13:05:36;;;;;;;;;;;;;;;35.92;15.79;102196.47;3943962;32;15729531;-72
2022/03/23 13:08:22;;;;;;;;;;;;;;;35.92;15.79;102196.47;4421210;32;19952;-72
2022/03/23 13:10:58;;;;;;;;;;;;;;;35.75;15.90;102190.34;4422889;32;20072;-73
2022/03/23 13:13:23;;;;;;;;;;;;;;;34.67;16.72;102191.75;4423440;32;19995;-73
2022/03/23 13:15:49;;;;;;;;;;;;;;;35.30;15.92;102185.09;4426684;32;20000;-71
2022/03/23 13:18:16;;;;;;;;;;;;;;;35.61;15.34;102183.88;4425527;32;20034;-71
2022/03/23 13:20:49;;;;;;;;;;;;;;;36.24;14.40;102182.03;4421113;32;20015;-71
2022/03/23 13:23:17;;;;;;;;;;;;;;;35.54;14.74;102177.97;4416983;32;19968;-71
2022/03/23 13:25:44;;;;;;;;;;;;;;;34.85;15.04;102154.81;4421656;32;20037;-73